»·PEaware :: N1947L KSAC-KSJC

N1947L :: KSAC-KSJC

FLIGHT INFORMATION

Flight Status: Arrived
Operator: Privately registered:
United States
More flights under this callsign
Pilot: Mark S. (16827)
Aircraft: CESSNA 172 SKYHAWK
(C172)
More flights by this aircraft type
Origin: KSAC Sacramento Executive
United States
Destination: KSJC Mineta San Jose Intl
United States
More flights between these airports :: More routes between these airports
Route: +
File this flight plan on PilotEdge
Remarks:
Altitude:
(Current/Filed)
0ft
Speed:
(Current/Filed)
0kts
Departed: 31-Aug-18 05:16 PM
Arrived: 31-Aug-18 05:59 PM
Distance/Time
Traveled:
74nm/0:42
Distance/Time
To Go:
Arrived

Flight Plot

Page will automatically refresh every two minutes.

Flight plan parsing failed; only flown route is shown


Map Options




Map Legend


Flown Route
Filed Route
Departure Airport
Arrival Airport
Navaid (VOR, NDB)
Fix

Horizontal Profiles

Position Reports

Time Latitude Longitude Heading Altitude Ground
Speed
31-Aug-18 17:06 38.520035 -121.495698 186 24ft 0kts
31-Aug-18 17:07 38.520035 -121.495698 186 24ft 0kts
31-Aug-18 17:08 38.519685 -121.494906 89 24ft 7kts
31-Aug-18 17:09 38.519352 -121.491629 100 23ft 11kts
31-Aug-18 17:10 38.519392 -121.490135 172 24ft 0kts
31-Aug-18 17:11 38.519392 -121.490135 172 24ft 0kts
31-Aug-18 17:12 38.519392 -121.490135 172 24ft 0kts
31-Aug-18 17:13 38.519392 -121.490135 172 24ft 0kts
31-Aug-18 17:14 38.519392 -121.490135 172 24ft 0kts
31-Aug-18 17:15 38.519392 -121.490135 172 24ft 0kts
31-Aug-18 17:16 38.519380 -121.490133 172 23ft 1kts
31-Aug-18 17:17 38.516068 -121.491688 212 24ft 63kts
31-Aug-18 17:18 38.499002 -121.506571 213 730ft 77kts
31-Aug-18 17:19 38.480839 -121.521811 214 1452ft 79kts
31-Aug-18 17:20 38.462172 -121.536664 212 2132ft 80kts
31-Aug-18 17:21 38.443129 -121.551600 198 2768ft 81kts
31-Aug-18 17:22 38.421444 -121.559553 194 3371ft 82kts
31-Aug-18 17:23 38.399200 -121.567463 193 3947ft 83kts
31-Aug-18 17:24 38.376281 -121.575521 193 4417ft 94kts
31-Aug-18 17:25 38.345402 -121.586383 195 4421ft 124kts
31-Aug-18 17:26 38.313075 -121.597862 197 4420ft 115kts
31-Aug-18 17:27 38.284642 -121.607888 200 4419ft 101kts
31-Aug-18 17:28 38.256612 -121.617779 201 4418ft 107kts
31-Aug-18 17:29 38.226501 -121.628392 202 4418ft 116kts
31-Aug-18 17:30 38.194802 -121.639553 202 4417ft 119kts
31-Aug-18 17:31 38.163579 -121.650535 201 4417ft 118kts
31-Aug-18 17:32 38.132134 -121.661588 201 4419ft 117kts
31-Aug-18 17:33 38.100820 -121.672584 201 4418ft 116kts
31-Aug-18 17:34 38.069759 -121.683485 201 4420ft 116kts
31-Aug-18 17:35 38.038497 -121.694432 201 4430ft 117kts
31-Aug-18 17:36 38.006789 -121.705520 201 4439ft 119kts
31-Aug-18 17:37 37.974719 -121.716739 201 4448ft 121kts
31-Aug-18 17:38 37.942139 -121.728131 200 4456ft 122kts
31-Aug-18 17:39 37.909294 -121.739603 200 4471ft 123kts
31-Aug-18 17:40 37.877087 -121.750843 200 4470ft 123kts
31-Aug-18 17:41 37.844038 -121.762367 200 4471ft 123kts
31-Aug-18 17:42 37.811001 -121.773909 200 4471ft 123kts
31-Aug-18 17:43 37.778990 -121.785072 201 4471ft 117kts
31-Aug-18 17:44 37.748208 -121.795781 201 4472ft 113kts
31-Aug-18 17:45 37.717802 -121.806348 201 4472ft 114kts
31-Aug-18 17:46 37.687190 -121.816975 201 4472ft 114kts
31-Aug-18 17:47 37.656596 -121.827587 201 4472ft 114kts
31-Aug-18 17:48 37.626263 -121.838814 210 4472ft 112kts
31-Aug-18 17:49 37.597643 -121.856682 212 4178ft 115kts
31-Aug-18 17:50 37.569818 -121.873836 212 3676ft 109kts
31-Aug-18 17:51 37.542622 -121.890140 212 3178ft 109kts
31-Aug-18 17:52 37.513593 -121.902114 194 2680ft 115kts
31-Aug-18 17:53 37.481745 -121.907791 193 2185ft 118kts
31-Aug-18 17:54 37.450284 -121.913314 190 1995ft 108kts
31-Aug-18 17:55 37.419693 -121.916187 188 1797ft 118kts
31-Aug-18 17:56 37.386033 -121.908414 138 1201ft 133kts
31-Aug-18 17:57 37.360336 -121.885306 193 863ft 110kts
31-Aug-18 17:58 37.341997 -121.904074 285 556ft 72kts
31-Aug-18 17:59 37.351832 -121.918073 322 192ft 49kts
31-Aug-18 18:00 37.359165 -121.925941 330 47ft 16kts
31-Aug-18 18:01 37.362227 -121.930615 248 47ft 0kts
31-Aug-18 18:02 37.362174 -121.930745 235 47ft 2kts
31-Aug-18 18:03 37.362019 -121.930890 198 47ft 0kts
31-Aug-18 18:04 37.358405 -121.927084 139 47ft 32kts
31-Aug-18 18:05 37.354184 -121.922532 138 47ft 27kts
31-Aug-18 18:06 37.352141 -121.919748 52 47ft 0kts
31-Aug-18 18:07 37.352141 -121.919748 52 47ft 0kts
31-Aug-18 18:08 37.352141 -121.919748 52 47ft 0kts
31-Aug-18 18:09 37.352141 -121.919748 52 47ft 0kts
31-Aug-18 18:10 37.353149 -121.919540 333 47ft 19kts
31-Aug-18 18:11 37.366230 -121.933308 325 598ft 71kts
31-Aug-18 18:12 37.376071 -121.951534 251 1432ft 79kts
31-Aug-18 18:13 37.354523 -121.956580 160 2164ft 90kts
31-Aug-18 18:14 37.330673 -121.946088 159 2853ft 91kts

Navigation Log

Ident Type
Flight plan parsing failed, navigation log unavailable